Time;durP1;ratioP1;P1;durP2;ratioP2;P2;SDS_P1;SDS_P2;PMS_P1;PMS_P2;Temp;Humidity;BMP_temperature;BMP_pressure;BME280_temperature;BME280_humidity;BME280_pressure;Samples;Min_cycle;Max_cycle;Signal;HPM_P1;HPM_P2
2021/04/17 03:43:42;;;;;;;19.05;13.10;;;;;;;3.89;66.42;97080.63;5332781;23;20378;-80
2021/04/17 03:46:08;;;;;;;17.77;13.40;;;;;;;3.87;66.74;97077.34;4917033;29;20055;-80
2021/04/17 03:48:35;;;;;;;19.05;13.65;;;;;;;3.84;67.27;97087.09;4916811;29;20052;-79
2021/04/17 03:51:03;;;;;;;20.13;13.70;;;;;;;3.82;67.34;97081.25;4916993;29;20060;-80
2021/04/17 03:53:29;;;;;;;17.88;13.60;;;;;;;3.81;67.06;97087.34;4916364;29;20052;-80
2021/04/17 03:55:56;;;;;;;22.27;15.10;;;;;;;3.80;67.45;97078.78;4916810;29;20052;-79
2021/04/17 03:58:22;;;;;;;17.23;13.27;;;;;;;3.79;67.23;97084.91;4916925;29;20056;-80
2021/04/17 04:00:50;;;;;;;18.58;13.65;;;;;;;3.78;67.41;97088.41;4916356;29;20062;-79
2021/04/17 04:03:16;;;;;;;19.20;14.45;;;;;;;3.78;67.67;97088.41;4916241;29;20095;-79
2021/04/17 04:05:43;;;;;;;18.95;14.18;;;;;;;3.80;67.35;97094.25;4916696;29;20094;-79
2021/04/17 04:08:09;;;;;;;21.23;13.90;;;;;;;3.81;67.55;97092.53;4916730;29;20063;-79
2021/04/17 04:10:36;;;;;;;20.35;14.48;;;;;;;3.81;67.29;97088.16;4916598;29;20059;-79
2021/04/17 04:13:03;;;;;;;21.20;13.70;;;;;;;3.82;67.55;97096.72;4916493;29;20068;-79
2021/04/17 04:15:29;;;;;;;18.95;14.70;;;;;;;3.83;67.28;97090.63;4916625;29;20063;-80
2021/04/17 04:17:57;;;;;;;19.67;14.00;;;;;;;3.83;67.65;97093.22;4916620;29;20510;-80
2021/04/17 04:20:23;;;;;;;18.63;13.38;;;;;;;3.83;67.29;97093.22;4916840;29;20063;-80
2021/04/17 04:22:50;;;;;;;20.88;14.88;;;;;;;3.83;67.55;97096.59;4916579;29;20052;-80
2021/04/17 04:25:16;;;;;;;19.23;15.05;;;;;;;3.83;67.67;97099.19;4918308;29;20048;-80
2021/04/17 04:27:43;;;;;;;17.98;14.60;;;;;;;3.83;67.77;97100.94;4918161;29;20052;-80
2021/04/17 04:30:11;;;;;;;19.48;14.02;;;;;;;3.82;67.81;97096.72;4917347;29;20062;-80
2021/04/17 04:32:38;;;;;;;19.83;14.45;;;;;;;3.81;67.39;97093.31;4916348;29;20048;-79
2021/04/17 04:35:07;;;;;;;24.35;15.15;;;;;;;3.82;67.93;97107.84;4917072;29;20051;-80
2021/04/17 04:37:34;;;;;;;21.15;14.63;;;;;;;3.82;67.60;97094.13;4917060;29;20048;-80
2021/04/17 04:40:01;;;;;;;20.27;15.20;;;;;;;3.82;67.55;97094.13;4917116;29;20064;-80
2021/04/17 04:42:27;;;;;;;21.27;15.55;;;;;;;3.81;67.73;97092.53;4916937;29;20079;-80
2021/04/17 04:44:54;;;;;;;19.35;14.43;;;;;;;3.79;67.96;97090.06;4916872;29;20514;-79
2021/04/17 04:47:20;;;;;;;22.98;16.05;;;;;;;3.78;67.68;97093.56;4917107;29;20052;-80
2021/04/17 04:49:47;;;;;;;19.42;14.65;;;;;;;3.78;67.71;97096.16;4916723;29;20103;-80
2021/04/17 04:52:15;;;;;;;20.65;15.45;;;;;;;3.81;67.79;97097.69;4916815;29;20055;-80
2021/04/17 04:54:41;;;;;;;21.65;14.70;;;;;;;3.82;67.89;97094.13;4916772;29;20056;-79
2021/04/17 04:57:08;;;;;;;22.08;14.80;;;;;;;3.82;67.94;97100.13;4916983;29;20056;-80
2021/04/17 04:59:35;;;;;;;24.67;15.25;;;;;;;3.81;67.96;97098.50;4916829;29;20450;-80
2021/04/17 05:02:02;;;;;;;21.33;16.17;;;;;;;3.82;67.84;97099.31;4916771;29;20052;-80
2021/04/17 05:04:29;;;;;;;21.67;15.20;;;;;;;3.82;68.07;97105.28;4916574;29;20052;-80
2021/04/17 05:06:57;;;;;;;20.13;15.27;;;;;;;3.83;67.98;97106.13;4916437;29;20052;-79
2021/04/17 05:09:24;;;;;;;23.27;15.05;;;;;;;3.82;67.78;97107.03;4916573;29;20060;-79
2021/04/17 05:11:51;;;;;;;21.27;16.02;;;;;;;3.83;67.83;97104.34;4917666;29;20055;-79
2021/04/17 05:14:17;;;;;;;19.13;15.38;;;;;;;3.83;67.92;97108.69;4920523;29;20048;-80
2021/04/17 05:16:44;;;;;;;20.88;14.90;;;;;;;3.85;67.50;97106.81;4935380;29;20036;-80
2021/04/17 05:19:11;;;;;;;22.02;15.80;;;;;;;3.84;68.01;97103.38;4941350;29;20052;-79
2021/04/17 05:21:37;;;;;;;23.83;15.93;;;;;;;3.84;67.90;97105.16;4941595;29;20463;-79
2021/04/17 05:24:05;;;;;;;22.35;16.25;;;;;;;3.86;68.04;97103.25;4935068;29;20048;-80
2021/04/17 05:26:32;;;;;;;20.85;15.40;;;;;;;3.88;67.70;97103.97;4923338;29;20055;-80
2021/04/17 05:28:59;;;;;;;23.63;15.85;;;;;;;3.87;67.85;97102.31;4927601;29;20107;-80
2021/04/17 05:31:28;;;;;;;19.98;14.80;;;;;;;3.89;67.61;97103.84;4930203;29;20048;-80
2021/04/17 05:33:56;;;;;;;23.00;16.23;;;;;;;3.91;67.47;97107.13;4935275;29;20146;-80
2021/04/17 05:36:24;;;;;;;22.35;15.70;;;;;;;3.90;67.65;97102.88;4940592;29;20060;-80
2021/04/17 05:38:53;;;;;;;20.05;14.50;;;;;;;3.90;67.46;97107.22;4937904;29;20515;-80
2021/04/17 05:41:25;;;;;;;20.88;14.98;;;;;;;3.91;67.57;97114.84;4939270;29;20048;-80
2021/04/17 05:49:16;;;;;;;21.02;16.70;;;;;;;3.98;67.17;97111.75;5066432;23;20086;-81
2021/04/17 05:51:44;;;;;;;20.95;14.80;;;;;;;3.99;67.58;97109.03;4952390;29;20052;-80
2021/04/17 05:54:13;;;;;;;21.27;15.15;;;;;;;4.02;67.17;97106.19;4946756;29;20056;-80
2021/04/17 05:56:40;;;;;;;21.83;15.73;;;;;;;4.04;67.27;97108.66;4949047;29;20067;-81
2021/04/17 05:59:07;;;;;;;21.35;15.77;;;;;;;4.03;67.40;97107.84;4943028;29;20104;-80
2021/04/17 06:01:34;;;;;;;20.27;15.05;;;;;;;4.05;67.25;97116.28;4932545;29;20052;-81
2021/04/17 06:04:01;;;;;;;21.17;16.50;;;;;;;4.06;67.58;97111.94;4923044;29;20139;-80
2021/04/17 06:06:29;;;;;;;22.15;16.48;;;;;;;4.06;67.32;97112.75;4922218;29;20488;-80
2021/04/17 06:08:56;;;;;;;25.27;16.30;;;;;;;4.07;67.23;97106.66;4937486;29;20052;-79
2021/04/17 06:11:22;;;;;;;21.00;15.82;;;;;;;4.08;67.70;97105.69;4938858;29;20063;-80
2021/04/17 06:13:50;;;;;;;22.55;16.55;;;;;;;4.10;67.32;97106.38;4939710;29;20059;-80
2021/04/17 06:16:17;;;;;;;21.98;15.93;;;;;;;4.13;67.64;97110.47;4939968;29;20138;-80
2021/04/17 06:18:58;;;;;;;22.73;16.48;;;;;;;4.14;67.20;97104.38;4939953;29;20084;-80
2021/04/17 06:21:25;;;;;;;23.92;16.05;;;;;;;4.16;67.49;97112.00;4939821;29;20542;-80
2021/04/17 06:23:53;;;;;;;22.65;16.77;;;;;;;4.15;67.68;97111.16;4939064;29;20506;-80
2021/04/17 06:26:24;;;;;;;21.25;15.48;;;;;;;4.19;67.53;97122.06;4937432;29;20163;-80
2021/04/17 06:28:51;;;;;;;19.45;15.15;;;;;;;4.20;68.01;97113.34;4945451;29;20078;-80
2021/04/17 06:31:21;;;;;;;23.58;15.80;;;;;;;4.23;67.69;97119.06;4926397;29;20115;-80
2021/04/17 06:33:48;;;;;;;22.75;16.23;;;;;;;4.26;67.49;97120.56;4931440;29;20080;-80
2021/04/17 06:36:26;;;;;;;22.95;16.42;;;;;;;4.28;67.98;97121.28;4925456;29;20062;-80
2021/04/17 06:45:02;;;;;;;21.98;15.88;;;;;;;4.32;67.15;97117.50;5331194;23;20048;-80
2021/04/17 06:47:30;;;;;;;21.35;16.33;;;;;;;4.33;67.37;97113.97;4943360;29;20060;-80
2021/04/17 06:55:21;;;;;;;21.85;15.85;;;;;;;4.41;67.23;97100.38;5225734;23;20055;-80
2021/04/17 06:58:19;;;;;;;22.33;16.67;;;;;;;4.44;67.46;97103.53;4948873;29;20060;-80
2021/04/17 07:00:49;;;;;;;21.25;16.58;;;;;;;4.47;67.33;97098.09;4949007;29;20431;-81
2021/04/17 07:03:20;;;;;;;26.85;15.93;;;;;;;4.50;66.86;97099.59;4946318;29;20040;-81
2021/04/17 07:08:34;;;;;;;25.92;17.35;;;;;;;4.62;67.05;97101.13;5159410;23;20039;-88
2021/04/17 07:11:04;;;;;;;20.73;15.90;;;;;;;4.68;66.70;97112.69;4943080;29;20070;-79
2021/04/17 07:13:31;;;;;;;21.38;15.57;;;;;;;4.72;66.63;97119.25;4940133;29;20495;-79
2021/04/17 07:19:00;;;;;;;19.63;15.00;;;;;;;4.86;66.57;97125.81;4960172;23;20107;-80
2021/04/17 07:21:43;;;;;;;19.70;15.88;;;;;;;4.91;66.16;97121.06;4911653;29;20091;-80
2021/04/17 07:27:54;;;;;;;21.92;15.40;;;;;;;5.00;65.88;97107.31;5158030;23;20063;-80
2021/04/17 07:31:50;;;;;;;18.20;13.63;;;;;;;5.09;65.58;97100.53;4954204;29;20063;-80
2021/04/17 07:35:46;;;;;;;15.52;11.88;;;;;;;5.22;64.75;97095.91;4936700;29;20076;-80
2021/04/17 07:38:40;;;;;;;14.15;10.55;;;;;;;5.32;63.92;97104.50;4907647;29;20124;-80
2021/04/17 07:41:25;;;;;;;14.25;10.30;;;;;;;5.41;64.12;97115.00;4910225;29;20052;-79
2021/04/17 07:43:58;;;;;;;13.88;10.57;;;;;;;5.48;63.02;97109.13;4923160;29;20052;-81
2021/04/17 07:50:17;;;;;;;12.60;9.75;;;;;;;5.63;62.37;97106.13;4912225;29;20051;-83
2021/04/17 07:58:47;;;;;;;15.43;11.23;;;;;;;5.65;62.14;97107.59;5117188;23;20094;-80
2021/04/17 08:01:18;;;;;;;15.45;11.68;;;;;;;5.67;62.44;97110.88;4960224;28;20111;-80
2021/04/17 08:03:48;;;;;;;19.27;12.40;;;;;;;5.70;62.48;97115.75;5292731;23;20050;-81
2021/04/17 08:06:25;;;;;;;15.68;11.07;;;;;;;5.70;62.56;97115.75;4958755;28;20035;-81
2021/04/17 08:08:59;;;;;;;14.90;11.98;;;;;;;5.71;62.74;97114.81;4960076;28;20095;-80
2021/04/17 08:11:29;;;;;;;14.93;11.45;;;;;;;5.70;62.08;97105.41;4958104;28;20062;-80
2021/04/17 08:14:01;;;;;;;16.77;12.45;;;;;;;5.69;62.03;97106.38;4953099;29;20086;-80
2021/04/17 08:16:30;;;;;;;16.00;11.07;;;;;;;5.69;62.59;97108.97;5176076;23;20063;-80
2021/04/17 08:18:59;;;;;;;15.07;10.90;;;;;;;5.73;62.99;97114.69;4941359;29;20047;-80
2021/04/17 08:21:30;;;;;;;17.30;13.00;;;;;;;5.76;62.82;97107.44;4948864;29;20051;-80
2021/04/17 08:23:58;;;;;;;15.75;12.43;;;;;;;5.78;62.31;97109.91;4943447;29;20051;-80
2021/04/17 08:26:33;;;;;;;16.88;12.60;;;;;;;5.80;62.23;97114.97;4942219;29;20102;-81
2021/04/17 08:29:04;;;;;;;15.02;11.48;;;;;;;5.83;62.62;97109.50;4943392;29;20058;-80
2021/04/17 08:31:33;;;;;;;22.35;12.70;;;;;;;5.88;62.64;97113.31;4943002;29;20055;-80
2021/04/17 08:34:07;;;;;;;15.32;12.00;;;;;;;5.93;62.46;97099.94;4948839;28;20059;-80
2021/04/17 08:36:38;;;;;;;13.52;11.70;;;;;;;5.97;62.23;97096.94;4942494;29;20048;-80
2021/04/17 08:39:07;;;;;;;10.95;9.00;;;;;;;6.03;62.54;97100.75;4942824;29;20051;-80
2021/04/17 08:41:45;;;;;;;14.20;9.88;;;;;;;6.12;61.85;97105.09;4942773;29;20079;-80
2021/04/17 08:44:34;;;;;;;13.32;9.30;;;;;;;6.23;61.68;97098.09;4943436;29;20051;-80
2021/04/17 08:47:04;;;;;;;12.20;10.23;;;;;;;6.30;61.36;97094.00;4946994;29;20051;-80
2021/04/17 08:49:33;;;;;;;14.75;10.63;;;;;;;6.35;60.43;97092.59;4948635;29;20537;-80
2021/04/17 08:52:22;;;;;;;11.30;8.93;;;;;;;6.45;60.74;97083.94;4946267;29;20083;-80
2021/04/17 08:55:13;;;;;;;11.25;9.00;;;;;;;6.60;61.23;97082.50;4945425;29;20064;-80
2021/04/17 08:57:41;;;;;;;11.50;9.32;;;;;;;6.70;60.29;97083.28;4945861;29;20062;-80
2021/04/17 09:00:11;;;;;;;12.35;8.00;;;;;;;6.79;59.95;97079.81;4947394;29;20066;-81
2021/04/17 09:02:49;;;;;;;15.07;10.15;;;;;;;6.89;60.46;97084.94;4944618;29;20048;-80
2021/04/17 09:05:18;;;;;;;10.77;7.88;;;;;;;6.99;59.17;97079.69;4943607;29;20051;-81
2021/04/17 09:07:48;;;;;;;7.50;5.85;;;;;;;7.08;58.08;97083.97;4945482;29;20048;-80
2021/04/17 09:10:35;;;;;;;5.47;4.03;;;;;;;7.20;55.56;97074.22;4943846;29;20066;-81
2021/04/17 09:13:31;;;;;;;5.07;3.85;;;;;;;7.36;55.65;97079.53;4945649;29;20060;-82
2021/04/17 09:16:04;;;;;;;7.00;4.25;;;;;;;7.55;55.74;97077.75;4950873;29;20051;-81
2021/04/17 09:18:43;;;;;;;4.07;3.67;;;;;;;7.72;53.77;97070.88;4950196;29;20051;-80
2021/04/17 09:21:37;;;;;;;5.70;4.05;;;;;;;7.86;53.64;97064.31;4946614;29;20067;-81
2021/04/17 09:24:25;;;;;;;8.77;4.47;;;;;;;7.96;53.53;97067.59;4944265;29;20056;-80
2021/04/17 09:26:53;;;;;;;7.78;5.10;;;;;;;8.00;52.56;97068.94;4943792;29;20404;-80
2021/04/17 09:29:29;;;;;;;8.43;4.80;;;;;;;8.03;52.27;97066.03;4943922;29;20051;-81
2021/04/17 09:32:04;;;;;;;5.30;4.80;;;;;;;8.08;51.80;97061.19;4955328;29;20060;-81
2021/04/17 09:34:38;;;;;;;6.72;5.35;;;;;;;8.14;52.04;97072.75;4956531;29;20048;-80
2021/04/17 09:37:11;;;;;;;7.50;5.43;;;;;;;8.17;50.68;97069.84;4954840;29;20423;-81
2021/04/17 09:39:45;;;;;;;5.65;5.15;;;;;;;8.14;51.71;97064.97;4948704;29;20066;-81
2021/04/17 09:42:13;;;;;;;7.30;5.82;;;;;;;8.20;52.16;97066.94;4947144;29;20056;-81
2021/04/17 09:44:46;;;;;;;8.43;5.80;;;;;;;8.27;51.63;97067.16;4943095;29;20082;-81
2021/04/17 09:47:18;;;;;;;7.32;5.22;;;;;;;8.34;50.68;97068.13;4943829;29;20562;-81
2021/04/17 09:49:50;;;;;;;6.78;5.88;;;;;;;8.35;50.99;97060.19;4945947;29;20059;-81
2021/04/17 09:52:22;;;;;;;7.00;6.00;;;;;;;8.41;51.90;97056.16;4943503;29;20051;-81
2021/04/17 09:55:00;;;;;;;7.22;5.70;;;;;;;8.53;51.35;97054.94;4942362;29;20051;-80
2021/04/17 09:57:28;;;;;;;8.18;6.57;;;;;;;8.64;51.20;97052.03;4942418;29;20063;-81
2021/04/17 09:59:58;;;;;;;7.43;6.68;;;;;;;8.73;50.90;97044.25;4939957;29;20063;-81
2021/04/17 10:02:41;;;;;;;7.18;6.05;;;;;;;8.76;50.29;97041.31;4942578;29;20059;-81
2021/04/17 10:05:12;;;;;;;7.00;6.15;;;;;;;8.80;50.67;97043.44;4941474;29;20055;-81
2021/04/17 10:07:44;;;;;;;7.63;6.03;;;;;;;8.80;50.20;97040.84;4940973;29;20054;-81
2021/04/17 10:10:12;;;;;;;7.00;6.30;;;;;;;8.81;50.83;97044.25;4940927;29;20059;-81
2021/04/17 10:12:50;;;;;;;9.30;6.05;;;;;;;8.81;49.88;97049.47;4939905;29;20055;-82
2021/04/17 10:15:36;;;;;;;6.47;5.47;;;;;;;8.77;49.86;97040.38;4941743;29;20063;-82
2021/04/17 10:18:06;;;;;;;9.38;5.93;;;;;;;8.70;49.57;97036.75;4942811;29;20051;-82
2021/04/17 10:20:35;;;;;;;8.10;6.10;;;;;;;8.66;50.16;97033.69;4940431;29;20138;-81
2021/04/17 10:23:04;;;;;;;7.75;5.78;;;;;;;8.63;49.12;97029.59;4940434;29;20107;-82
2021/04/17 10:25:39;;;;;;;6.03;5.45;;;;;;;8.63;49.86;97032.19;4940018;29;20052;-81
2021/04/17 10:28:12;;;;;;;10.02;6.22;;;;;;;8.71;50.57;97028.81;4939956;29;20554;-81
2021/04/17 10:30:39;;;;;;;7.30;5.20;;;;;;;8.75;49.38;97029.31;4939681;29;20102;-81
2021/04/17 10:33:19;;;;;;;9.75;6.13;;;;;;;8.77;49.41;97029.97;4939793;29;20111;-81
2021/04/17 10:35:48;;;;;;;7.20;5.75;;;;;;;8.85;49.27;97019.56;4939972;29;20052;-82
2021/04/17 10:38:27;;;;;;;6.88;5.55;;;;;;;8.93;48.52;97026.56;4944136;29;20055;-81
2021/04/17 10:40:56;;;;;;;6.43;4.68;;;;;;;9.03;48.99;97012.44;4961098;28;20506;-81
2021/04/17 10:43:24;;;;;;;7.57;5.00;;;;;;;9.21;48.62;97014.06;4960572;28;20048;-81
2021/04/17 10:45:56;;;;;;;7.03;4.75;;;;;;;9.39;48.56;97017.31;4957050;29;20105;-81
2021/04/17 10:48:26;;;;;;;6.30;4.70;;;;;;;9.59;47.96;97014.34;4951825;29;20059;-81
2021/04/17 10:51:01;;;;;;;5.47;5.00;;;;;;;9.76;48.32;97004.72;4951463;29;20043;-81
2021/04/17 10:53:32;;;;;;;6.45;5.22;;;;;;;9.86;46.18;96993.16;4955412;29;20091;-81
2021/04/17 10:56:08;;;;;;;7.00;4.93;;;;;;;9.94;46.31;96994.91;4951378;29;20048;-81
2021/04/17 10:58:37;;;;;;;9.13;5.00;;;;;;;10.03;46.96;96996.47;4939070;29;20135;-81
2021/04/17 11:01:08;;;;;;;6.55;5.15;;;;;;;10.17;47.17;96992.38;4938639;29;20059;-81
2021/04/17 11:03:43;;;;;;;6.35;5.05;;;;;;;10.36;45.88;96993.78;4938493;29;20155;-81
2021/04/17 11:06:13;;;;;;;7.35;5.13;;;;;;;10.54;46.21;96983.13;4939145;29;20056;-81
2021/04/17 11:08:41;;;;;;;5.32;4.65;;;;;;;10.69;45.74;96981.38;4939772;29;20114;-81
2021/04/17 11:11:11;;;;;;;5.55;4.57;;;;;;;10.69;44.26;96978.78;4938368;29;20058;-81
2021/04/17 11:13:41;;;;;;;5.57;4.25;;;;;;;10.54;44.26;96975.28;4938295;29;20055;-81
2021/04/17 11:16:12;;;;;;;6.00;3.83;;;;;;;10.48;44.45;96970.75;4946205;29;20460;-81
2021/04/17 11:18:42;;;;;;;4.97;4.07;;;;;;;10.47;44.56;96969.09;4947657;29;20427;-81
2021/04/17 11:21:16;;;;;;;11.27;4.35;;;;;;;10.52;44.63;96964.22;4942948;29;20134;-82
2021/04/17 11:23:47;;;;;;;5.65;3.90;;;;;;;10.58;43.69;96970.50;4941022;29;20055;-81
2021/04/17 11:26:19;;;;;;;5.57;3.83;;;;;;;10.56;43.40;96956.84;4954844;28;20035;-81
2021/04/17 11:28:48;;;;;;;;;;;;;;;10.56;43.06;96956.84;4960830;28;20071;-81
2021/04/17 11:31:19;;;;;;;6.07;3.67;;;;;;;10.54;43.44;96950.97;4955400;29;19990;-81
2021/04/17 11:33:50;;;;;;;4.50;3.38;;;;;;;10.53;43.14;96960.59;4941891;29;20484;-82
2021/04/17 11:36:23;;;;;;;4.95;3.58;;;;;;;10.54;42.80;96954.41;4942159;29;20058;-81
2021/04/17 11:38:51;;;;;;;3.38;3.08;;;;;;;10.50;41.58;96956.53;4940682;29;20055;-81
2021/04/17 11:41:20;;;;;;;6.13;3.17;;;;;;;10.44;41.16;96951.22;4938379;29;20055;-80
2021/04/17 11:43:48;;;;;;;3.00;2.80;;;;;;;10.42;41.27;96945.34;4957283;29;20047;-81
2021/04/17 11:46:17;;;;;;;3.38;2.83;;;;;;;10.46;41.19;96952.66;4959815;28;20067;-80
2021/04/17 11:48:51;;;;;;;4.80;2.80;;;;;;;10.50;40.85;96945.31;4953045;28;20138;-80
2021/04/17 11:51:19;;;;;;;4.47;2.97;;;;;;;10.52;40.80;96943.34;4939882;29;20148;-80
2021/04/17 11:53:49;;;;;;;2.60;2.40;;;;;;;10.53;41.16;96937.13;4951092;29;20055;-81
2021/04/17 11:56:17;;;;;;;5.38;3.10;;;;;;;10.55;40.75;96945.59;4943978;29;20138;-81
2021/04/17 11:58:46;;;;;;;4.57;2.92;;;;;;;10.54;40.34;96941.38;4938529;29;20546;-80
2021/04/17 12:01:14;;;;;;;5.53;3.17;;;;;;;10.54;39.13;96938.78;4938309;29;20106;-81
2021/04/17 12:03:41;;;;;;;3.78;2.95;;;;;;;10.46;39.48;96942.22;4939462;29;20055;-81
2021/04/17 12:06:10;;;;;;;4.93;3.35;;;;;;;10.46;39.70;96941.41;4937713;29;20099;-80
2021/04/17 12:08:38;;;;;;;4.50;3.30;;;;;;;10.46;39.65;96936.19;4937666;29;20062;-81
2021/04/17 12:11:06;;;;;;;4.50;3.03;;;;;;;10.41;40.60;96946.34;4937750;29;20055;-81
2021/04/17 12:13:34;;;;;;;4.35;3.47;;;;;;;10.34;40.54;96945.38;4937443;29;20083;-81
2021/04/17 12:16:04;;;;;;;5.85;3.80;;;;;;;10.30;41.12;96937.91;4937061;29;20086;-81
2021/04/17 12:18:32;;;;;;;5.60;3.40;;;;;;;10.23;40.97;96947.38;4938996;29;20478;-81
2021/04/17 12:21:12;;;;;;;5.88;3.75;;;;;;;10.21;41.71;96944.13;4943667;29;20061;-82
2021/04/17 12:23:41;;;;;;;4.70;3.50;;;;;;;10.20;41.50;96934.69;4945134;29;20516;-81
2021/04/17 12:26:09;;;;;;;4.50;3.40;;;;;;;10.14;40.81;96937.97;4936167;29;20070;-80
2021/04/17 12:28:38;;;;;;;5.10;3.53;;;;;;;10.06;41.36;96931.00;4943066;28;20082;-80
2021/04/17 12:31:10;;;;;;;5.65;3.83;;;;;;;10.06;40.79;96930.19;4947272;28;20043;-81
2021/04/17 12:33:50;;;;;;;3.80;3.40;;;;;;;10.01;40.66;96935.91;4944971;29;20418;-81
2021/04/17 12:36:22;;;;;;;5.60;3.30;;;;;;;10.04;41.42;96935.56;4940422;29;20084;-82
2021/04/17 12:38:50;;;;;;;6.53;3.38;;;;;;;10.06;41.01;96932.81;4939984;29;20048;-80
2021/04/17 12:41:19;;;;;;;5.22;3.40;;;;;;;10.05;40.79;96928.56;4938074;29;20048;-80
2021/04/17 12:43:46;;;;;;;6.20;3.97;;;;;;;10.01;41.11;96933.28;4936719;29;20094;-80
2021/04/17 12:46:14;;;;;;;5.65;3.50;;;;;;;10.00;40.98;96921.25;4937803;29;20052;-81
2021/04/17 12:48:41;;;;;;;3.95;3.42;;;;;;;10.02;40.53;96924.50;5014068;23;20044;-81
2021/04/17 12:51:15;;;;;;;3.95;3.35;;;;;;;10.03;40.50;96918.28;4888142;29;20140;-81
2021/04/17 12:53:43;;;;;;;7.32;3.20;;;;;;;10.07;40.56;96924.78;4884013;29;20080;-80
2021/04/17 12:56:11;;;;;;;5.07;3.08;;;;;;;10.15;40.52;96918.75;4883173;29;20060;-80
2021/04/17 12:58:39;;;;;;;10.25;4.28;;;;;;;10.12;39.97;96921.69;4884060;29;20056;-79
2021/04/17 13:01:07;;;;;;;3.72;3.28;;;;;;;10.06;40.08;96919.78;4884479;29;20512;-80
2021/04/17 13:03:36;;;;;;;4.93;3.53;;;;;;;10.02;40.23;96918.50;4882017;29;20057;-81
2021/04/17 13:06:06;;;;;;;5.03;3.97;;;;;;;9.98;40.06;96914.59;4880579;29;20136;-81
2021/04/17 13:08:34;;;;;;;4.43;3.55;;;;;;;9.89;40.20;96912.03;4881240;29;20091;-81
2021/04/17 13:11:03;;;;;;;8.70;3.35;;;;;;;9.85;40.60;96913.34;4882934;29;20127;-81
2021/04/17 13:13:31;;;;;;;5.65;3.47;;;;;;;9.79;40.88;96914.00;4884478;29;20053;-81
2021/04/17 13:16:02;;;;;;;4.47;3.60;;;;;;;9.74;40.76;96908.50;4890179;29;20049;-81
2021/04/17 13:18:30;;;;;;;4.82;3.13;;;;;;;9.74;41.48;96911.09;4893932;29;20068;-81
2021/04/17 13:20:58;;;;;;;5.80;3.60;;;;;;;9.80;41.52;96905.22;4897134;29;20045;-81
2021/04/17 13:58:33;;;;;;;5.80;2.90;;;;;;;9.65;43.87;96893.88;5759444;23;20044;-81
2021/04/17 14:14:33;;;;;;;4.67;3.53;;;;;;;9.39;45.06;96900.13;5601739;23;20051;-80
2021/04/17 15:06:08;;;;;;;3.20;2.15;;;;;;;8.50;50.96;96917.44;4973383;23;20059;-81
2021/04/17 16:15:18;;;;;;;10.13;7.00;;;;;;;7.26;55.48;96923.13;4852527;29;20138;-81
2021/04/17 16:17:57;;;;;;;8.40;6.45;;;;;;;7.23;56.40;96920.81;4862120;29;20053;-81
2021/04/17 16:20:25;;;;;;;9.75;8.13;;;;;;;7.23;56.02;96929.41;4852212;29;20049;-81
2021/04/17 16:22:54;;;;;;;6.20;5.55;;;;;;;7.21;55.73;96922.75;4850037;29;20057;-81
2021/04/17 16:25:24;;;;;;;7.05;4.53;;;;;;;7.16;56.52;96931.00;4854422;29;20054;-81
2021/04/17 16:28:01;;;;;;;8.23;4.85;;;;;;;7.14;56.17;96929.50;4861110;29;20054;-82
2021/04/17 16:30:32;;;;;;;5.70;4.25;;;;;;;7.12;56.52;96928.84;4861087;29;20117;-81
2021/04/17 16:33:00;;;;;;;5.95;4.50;;;;;;;7.11;56.59;96924.66;4849970;29;20057;-81
2021/04/17 16:35:28;;;;;;;8.20;4.45;;;;;;;7.07;57.13;96933.69;4853580;29;20054;-81
2021/04/17 16:37:56;;;;;;;6.60;4.60;;;;;;;7.05;57.02;96930.44;4860984;29;20152;-81
2021/04/17 16:40:25;;;;;;;7.32;5.10;;;;;;;7.05;57.85;96933.03;4855694;29;20060;-81
2021/04/17 16:42:52;;;;;;;5.43;4.53;;;;;;;7.05;57.61;96933.84;4850024;29;20054;-81
2021/04/17 16:45:20;;;;;;;4.68;4.05;;;;;;;6.96;57.74;96932.16;4851347;29;20060;-81
2021/04/17 16:47:50;;;;;;;4.30;3.90;;;;;;;6.86;58.03;96934.81;4851102;29;20045;-80
2021/04/17 16:50:17;;;;;;;5.13;4.18;;;;;;;6.91;61.17;96939.56;4845118;29;20128;-81
2021/04/17 16:52:44;;;;;;;8.13;5.18;;;;;;;7.03;59.63;96932.38;4852539;29;20054;-81
2021/04/17 16:57:54;;;;;;;5.82;3.95;;;;;;;6.97;58.82;96931.16;4853755;29;20118;-81
2021/04/17 17:00:22;;;;;;;6.07;4.55;;;;;;;6.95;59.10;96931.34;4849189;29;20141;-81
2021/04/17 17:02:54;;;;;;;5.00;4.40;;;;;;;6.96;58.95;96927.78;4851450;29;20061;-80
2021/04/17 17:05:22;;;;;;;6.03;4.47;;;;;;;6.98;58.92;96935.41;4851969;29;20501;-81
2021/04/17 17:07:49;;;;;;;6.43;4.18;;;;;;;6.99;58.74;96937.84;4853552;29;20057;-81
2021/04/17 17:10:17;;;;;;;5.53;4.55;;;;;;;6.96;59.00;96932.97;4856666;29;20046;-81
2021/04/17 17:12:44;;;;;;;8.10;6.13;;;;;;;6.93;59.10;96932.44;4863139;29;20053;-81
2021/04/17 17:15:14;;;;;;;5.07;4.07;;;;;;;6.94;60.11;96934.06;4856820;29;20058;-81
2021/04/17 17:17:43;;;;;;;6.05;3.55;;;;;;;6.95;59.00;96930.50;4869567;29;20054;-82
2021/04/17 17:20:30;;;;;;;4.95;3.80;;;;;;;6.94;59.10;96936.66;4871697;29;20045;-82
2021/04/17 17:22:58;;;;;;;5.20;4.05;;;;;;;6.92;58.29;96936.81;5565245;23;20037;-78
2021/04/17 17:28:00;;;;;;;4.65;3.30;;;;;;;6.89;58.42;96944.91;5437458;23;20443;-81
2021/04/17 17:30:40;;;;;;;58.83;6.78;;;;;;;6.86;58.08;96942.59;4923011;29;20082;-81
2021/04/17 17:33:09;;;;;;;3.40;3.08;;;;;;;6.79;57.96;96937.19;4922958;29;20060;-81
2021/04/17 17:35:40;;;;;;;4.82;3.55;;;;;;;6.73;57.80;96945.56;4927715;29;20044;-82
2021/04/17 17:38:10;;;;;;;5.68;3.83;;;;;;;6.70;57.65;96945.06;4926262;29;20056;-81
2021/04/17 17:40:38;;;;;;;5.28;3.17;;;;;;;6.71;57.92;96949.28;4917535;29;20044;-81
2021/04/17 17:43:07;;;;;;;3.20;2.90;;;;;;;6.69;57.81;96946.84;4915562;29;20123;-81
2021/04/17 17:45:35;;;;;;;6.13;3.88;;;;;;;6.66;57.76;96947.13;4917341;29;20122;-81
2021/04/17 17:48:04;;;;;;;4.43;3.95;;;;;;;6.63;57.73;96955.22;4917517;29;20055;-82
2021/04/17 17:50:34;;;;;;;5.90;4.10;;;;;;;6.60;57.69;96948.56;4920139;29;20120;-81
2021/04/17 17:53:06;;;;;;;6.82;3.67;;;;;;;6.61;58.10;96951.97;4923495;29;20056;-82
2021/04/17 17:55:36;;;;;;;6.88;4.03;;;;;;;6.59;57.57;96951.28;4921609;29;20082;-82
2021/04/17 17:58:06;;;;;;;4.97;3.95;;;;;;;6.56;57.89;96952.41;4915994;29;20065;-82
2021/04/17 18:00:34;;;;;;;6.70;4.45;;;;;;;6.57;58.57;96954.00;4923184;29;20071;-81
2021/04/17 18:03:02;;;;;;;5.68;4.07;;;;;;;6.60;57.96;96961.50;4921231;29;20056;-81
2021/04/17 18:05:30;;;;;;;7.28;4.22;;;;;;;6.64;58.05;96958.63;4918140;29;20511;-82
2021/04/17 18:08:00;;;;;;;8.07;4.10;;;;;;;6.64;58.11;96956.03;4926000;29;20060;-81
2021/04/17 18:10:29;;;;;;;7.57;4.63;;;;;;;6.63;57.92;96957.00;4922273;29;20060;-81
2021/04/17 18:13:00;;;;;;;6.45;4.38;;;;;;;6.64;57.66;96958.63;4914110;29;20086;-82
2021/04/17 18:15:28;;;;;;;7.45;4.57;;;;;;;6.61;57.51;96962.31;4923160;29;20037;-82
2021/04/17 18:18:01;;;;;;;6.47;4.40;;;;;;;6.61;58.44;96959.72;4916987;29;20059;-82
2021/04/17 18:20:30;;;;;;;;;;;;;;;6.65;58.15;96961.06;4921276;29;20076;-82
2021/04/17 18:23:02;;;;;;;6.28;4.65;;;;;;;6.60;57.99;96958.91;4924313;29;20034;-82
2021/04/17 18:25:36;;;;;;;7.07;4.60;;;;;;;6.60;58.32;96953.75;4919046;29;20056;-82
2021/04/17 18:30:51;;;;;;;7.13;4.90;;;;;;;6.55;57.88;96950.75;5875244;23;20049;-82
2021/04/17 18:33:22;;;;;;;5.18;4.28;;;;;;;6.49;57.82;96956.53;4944491;29;20055;-82
2021/04/17 18:35:51;;;;;;;5.22;3.78;;;;;;;6.46;57.96;96961.19;4934052;29;20053;-82
2021/04/17 18:38:34;;;;;;;7.72;5.20;;;;;;;6.43;58.14;96959.72;4923606;29;20108;-82
2021/04/17 18:41:09;;;;;;;4.72;4.22;;;;;;;6.40;58.30;96960.81;4920756;29;20076;-82
2021/04/17 18:43:38;;;;;;;5.88;4.80;;;;;;;6.40;58.53;96960.81;4924243;29;20123;-82
2021/04/17 18:46:12;;;;;;;6.25;4.90;;;;;;;6.39;58.63;96966.16;4921178;29;20039;-82
2021/04/17 18:51:33;;;;;;;6.53;5.10;;;;;;;6.37;58.17;96965.50;4921607;29;20078;-82
2021/04/17 18:54:02;;;;;;;8.25;4.75;;;;;;;6.36;57.93;96962.09;4925811;29;20059;-81
2021/04/17 18:56:37;;;;;;;7.38;4.47;;;;;;;6.36;57.94;96966.44;4920781;29;20561;-82
2021/04/17 18:59:07;;;;;;;5.88;4.93;;;;;;;6.39;58.29;96968.75;4921091;29;20052;-82
2021/04/17 19:01:38;;;;;;;7.47;4.95;;;;;;;6.38;57.77;96974.88;4928322;29;20043;-82
2021/04/17 19:04:13;;;;;;;21.75;13.93;;;;;;;6.38;58.24;96975.72;4928735;29;20056;-82
2021/04/17 19:06:45;;;;;;;13.00;6.10;;;;;;;6.40;58.32;96975.53;4929488;29;20075;-81